createdAt,value
2018-08-23T00:02:04.280Z,10.67
2018-08-23T00:04:33.065Z,9.70
2018-08-23T00:07:01.845Z,13.30
2018-08-23T00:09:33.867Z,10.87
2018-08-23T00:12:03.641Z,9.93
2018-08-23T00:14:32.418Z,10.00
2018-08-23T00:17:04.665Z,11.47
2018-08-23T00:19:33.432Z,11.10
2018-08-23T00:22:02.263Z,9.70
2018-08-23T00:24:31.050Z,11.70
2018-08-23T00:27:00.236Z,11.17
2018-08-23T00:29:32.786Z,20.53
2018-08-23T00:32:05.473Z,11.63
2018-08-23T00:34:42.092Z,9.90
2018-08-23T00:37:14.349Z,10.90
2018-08-23T00:39:43.148Z,12.40
2018-08-23T00:42:13.180Z,9.80
2018-08-23T00:44:57.766Z,10.30
2018-08-23T00:47:31.668Z,10.97
2018-08-23T00:50:00.777Z,9.70
2018-08-23T00:52:45.448Z,12.00
2018-08-23T00:55:23.249Z,11.50
2018-08-23T00:57:53.097Z,9.90
2018-08-23T01:00:23.013Z,10.97
2018-08-23T01:02:58.694Z,11.23
2018-08-23T01:05:36.028Z,11.83
2018-08-23T01:08:05.405Z,15.37
2018-08-23T01:10:44.590Z,10.53
2018-08-23T01:13:13.360Z,10.60
2018-08-23T01:15:49.189Z,11.90
2018-08-23T01:18:26.410Z,10.33
2018-08-23T01:21:05.873Z,12.60
2018-08-23T01:23:42.476Z,10.93
2018-08-23T01:26:13.265Z,10.43
2018-08-23T01:28:43.041Z,10.33
2018-08-23T01:31:24.104Z,10.20
2018-08-23T01:33:57.757Z,9.20
2018-08-23T01:36:39.689Z,9.83
2018-08-23T01:39:11.654Z,10.77
2018-08-23T01:41:40.512Z,10.10
2018-08-23T01:44:09.358Z,12.43
2018-08-23T01:46:43.683Z,14.40
2018-08-23T01:49:18.581Z,12.47
2018-08-23T01:51:53.245Z,10.10
2018-08-23T01:54:28.717Z,11.20
2018-08-23T01:57:01.453Z,10.87
2018-08-23T01:59:31.304Z,10.70
2018-08-23T02:02:08.696Z,11.03
2018-08-23T02:04:39.501Z,10.73
2018-08-23T02:07:13.824Z,10.70
2018-08-23T02:09:42.617Z,12.53
2018-08-23T02:12:11.409Z,15.23
2018-08-23T02:14:46.301Z,14.43
2018-08-23T02:17:15.048Z,11.50
2018-08-23T02:19:47.245Z,12.57
2018-08-23T02:22:22.238Z,13.50
2018-08-23T02:24:51.009Z,11.57
2018-08-23T02:27:23.585Z,9.40
2018-08-23T02:29:52.381Z,11.70
2018-08-23T02:32:22.196Z,12.87
2018-08-23T02:34:51.476Z,11.77
2018-08-23T02:37:24.405Z,11.00
2018-08-23T02:39:54.205Z,12.87
2018-08-23T02:42:23.081Z,11.70
2018-08-23T02:44:52.921Z,14.60
2018-08-23T02:47:21.765Z,12.83
2018-08-23T02:49:52.616Z,12.63
2018-08-23T02:52:21.425Z,20.83
2018-08-23T02:54:52.245Z,10.73
2018-08-23T02:57:23.049Z,12.67
2018-08-23T02:59:57.793Z,12.23
2018-08-23T03:02:26.569Z,11.87
2018-08-23T03:04:58.833Z,11.10
2018-08-23T03:07:32.761Z,11.90
2018-08-23T03:10:09.053Z,12.23
2018-08-23T03:12:37.925Z,12.73
2018-08-23T03:15:08.733Z,13.50
2018-08-23T03:17:52.117Z,12.27
2018-08-23T03:20:21.898Z,12.70
2018-08-23T03:22:51.849Z,12.17
2018-08-23T03:25:21.805Z,11.20
2018-08-23T03:27:57.761Z,12.33
2018-08-23T03:30:27.581Z,15.43
2018-08-23T03:32:56.357Z,12.23
2018-08-23T03:35:28.737Z,13.83
2018-08-23T03:38:01.825Z,10.93
2018-08-23T03:40:31.681Z,12.70
2018-08-23T03:43:00.577Z,14.37
2018-08-23T03:45:33.025Z,11.90
2018-08-23T03:48:04.957Z,13.23
2018-08-23T03:50:53.393Z,12.20
2018-08-23T03:53:22.777Z,12.70
2018-08-23T03:56:06.973Z,12.83
2018-08-23T03:58:40.589Z,11.97
2018-08-23T04:01:14.753Z,10.70
2018-08-23T04:03:50.989Z,11.30
2018-08-23T04:06:36.825Z,12.67
2018-08-23T04:09:08.284Z,12.70
2018-08-23T04:11:40.968Z,12.63
2018-08-23T04:14:09.945Z,13.60
2018-08-23T04:16:38.754Z,14.23
2018-08-23T04:19:08.552Z,12.10
2018-08-23T04:21:37.317Z,12.80
2018-08-23T04:24:06.117Z,14.50
2018-08-23T04:26:35.949Z,11.60
2018-08-23T04:29:08.089Z,25.10
2018-08-23T04:31:38.961Z,12.20
2018-08-23T04:34:08.213Z,13.10
2018-08-23T04:36:39.021Z,13.80
2018-08-23T04:39:10.438Z,14.70
2018-08-23T04:41:40.257Z,13.60
2018-08-23T04:44:15.805Z,12.93
2018-08-23T04:46:46.641Z,16.03
2018-08-23T04:49:16.425Z,14.50
2018-08-23T04:51:47.349Z,16.17
2018-08-23T04:54:16.068Z,15.23
2018-08-23T04:56:48.769Z,13.30
2018-08-23T04:59:28.097Z,13.70
2018-08-23T05:02:00.573Z,14.73
2018-08-23T05:04:29.929Z,14.00
2018-08-23T05:07:06.265Z,14.27
2018-08-23T05:09:40.849Z,12.33
2018-08-23T05:12:15.193Z,12.70
2018-08-23T05:14:44.053Z,13.77
2018-08-23T05:17:14.813Z,12.40
2018-08-23T05:19:46.916Z,14.43
2018-08-23T05:22:15.757Z,17.37
2018-08-23T05:24:45.532Z,14.77
2018-08-23T05:27:18.057Z,14.60
2018-08-23T05:29:47.893Z,15.70
2018-08-23T05:32:16.592Z,16.63
2018-08-23T05:34:45.389Z,14.47
2018-08-23T05:37:14.177Z,14.60
2018-08-23T05:39:50.805Z,19.03
2018-08-23T05:42:34.153Z,15.80
2018-08-23T05:45:02.985Z,17.10
2018-08-23T05:47:32.948Z,17.30
2018-08-23T05:50:03.747Z,12.93
2018-08-23T05:52:36.289Z,12.27
2018-08-23T05:55:05.083Z,11.97
2018-08-23T05:57:34.897Z,12.87
2018-08-23T06:00:05.157Z,12.63
2018-08-23T06:02:33.913Z,12.53
2018-08-23T06:05:02.692Z,21.10
2018-08-23T06:07:34.953Z,11.80
2018-08-23T06:10:04.792Z,13.40
2018-08-23T06:12:33.845Z,12.20
2018-08-23T06:15:06.430Z,10.27
2018-08-23T06:17:35.228Z,11.67
2018-08-23T06:20:04.049Z,11.17
2018-08-23T06:22:33.840Z,10.20
2018-08-23T06:25:02.605Z,11.73
2018-08-23T06:27:31.625Z,11.03
2018-08-23T06:30:03.499Z,10.77
2018-08-23T06:32:34.339Z,10.27
2018-08-23T06:35:09.277Z,14.30
2018-08-23T06:37:49.444Z,10.43
2018-08-23T06:40:22.069Z,10.40
2018-08-23T06:43:02.061Z,9.23
2018-08-23T06:45:34.001Z,12.90
2018-08-23T06:48:04.725Z,9.93
2018-08-23T06:50:36.282Z,14.70
2018-08-23T06:53:10.909Z,9.27
2018-08-23T06:55:40.643Z,9.13
2018-08-23T06:58:10.397Z,9.70
2018-08-23T07:00:42.581Z,9.47
2018-08-23T07:03:21.857Z,12.77
2018-08-23T07:05:50.609Z,11.20
2018-08-23T07:08:22.505Z,9.33
2018-08-23T07:11:01.474Z,11.93
2018-08-23T07:13:30.261Z,12.80
2018-08-23T07:16:00.585Z,8.53
2018-08-23T07:18:32.741Z,8.53
2018-08-23T07:21:11.220Z,7.97
2018-08-23T07:23:40.049Z,8.07
2018-08-23T07:26:12.783Z,7.87
2018-08-23T07:28:42.445Z,8.60
2018-08-23T07:31:13.205Z,7.90
2018-08-23T07:33:43.681Z,8.67
2018-08-23T07:36:28.762Z,12.77
2018-08-23T07:38:57.946Z,7.53
2018-08-23T07:41:26.940Z,9.90
2018-08-23T07:43:55.650Z,8.00
2018-08-23T07:46:30.285Z,9.77
2018-08-23T07:48:59.080Z,7.87
2018-08-23T07:51:33.728Z,10.20
2018-08-23T07:54:07.953Z,7.60
2018-08-23T07:56:40.076Z,8.90
2018-08-23T07:59:09.881Z,6.90
2018-08-23T08:01:40.648Z,7.47
2018-08-23T08:04:09.693Z,7.97
2018-08-23T08:06:38.893Z,4.97
2018-08-23T08:09:11.638Z,6.40
2018-08-23T08:12:01.375Z,6.17
2018-08-23T08:14:32.897Z,5.87
2018-08-23T08:17:16.318Z,5.60
2018-08-23T08:19:56.081Z,7.67
2018-08-23T08:22:26.900Z,8.90
2018-08-23T08:25:01.833Z,6.43
2018-08-23T08:27:31.573Z,5.80
2018-08-23T08:30:00.297Z,5.73
2018-08-23T08:32:38.812Z,5.27
2018-08-23T08:35:15.120Z,5.70
2018-08-23T08:37:45.805Z,4.17
2018-08-23T08:40:23.261Z,5.10
2018-08-23T08:42:51.951Z,3.70
2018-08-23T08:45:20.738Z,3.53
2018-08-23T08:47:51.516Z,4.47
2018-08-23T08:50:20.265Z,4.00
2018-08-23T08:52:57.069Z,3.43
2018-08-23T08:55:25.825Z,4.47
2018-08-23T08:57:55.645Z,3.70
2018-08-23T09:03:19.281Z,5.40
2018-08-23T09:05:48.121Z,4.57
2018-08-23T09:08:22.792Z,4.23
2018-08-23T09:10:51.625Z,5.20
2018-08-23T09:13:35.661Z,5.43
2018-08-23T09:16:07.521Z,5.87
2018-08-23T09:18:38.110Z,5.37
2018-08-23T09:21:08.797Z,5.30
2018-08-23T09:23:37.581Z,6.73
2018-08-23T09:26:06.369Z,6.87
2018-08-23T09:28:35.205Z,9.20
2018-08-23T09:31:09.721Z,7.40
2018-08-23T09:33:43.037Z,6.70
2018-08-23T09:36:12.772Z,9.40
2018-08-23T09:38:45.561Z,13.23
2018-08-23T09:41:15.278Z,6.57
2018-08-23T09:43:44.073Z,6.33
2018-08-23T09:46:12.881Z,5.90
2018-08-23T09:48:43.597Z,5.90
2018-08-23T09:51:18.290Z,5.93
2018-08-23T09:53:53.776Z,6.27
2018-08-23T09:56:29.450Z,6.30
2018-08-23T09:59:00.304Z,6.13
2018-08-23T10:01:34.365Z,6.70
2018-08-23T10:04:12.219Z,7.37
2018-08-23T10:06:51.441Z,6.30
2018-08-23T10:15:16.989Z,6.57
2018-08-23T10:17:51.389Z,6.30
2018-08-23T10:20:31.636Z,7.27
2018-08-23T10:23:16.368Z,6.90
2018-08-23T10:25:50.148Z,8.53
2018-08-23T10:28:36.984Z,8.20
2018-08-23T10:31:05.810Z,6.47
2018-08-23T10:33:35.588Z,6.57
2018-08-23T10:36:04.367Z,6.73
2018-08-23T10:38:33.154Z,6.70
2018-08-23T10:41:07.372Z,6.53
2018-08-23T10:43:44.132Z,7.10
2018-08-23T10:46:12.936Z,9.47
2018-08-23T10:48:51.652Z,6.77
2018-08-23T10:51:33.756Z,10.17
2018-08-23T10:54:06.128Z,7.67
2018-08-23T10:56:44.479Z,7.40
2018-08-23T10:59:14.277Z,8.27
2018-08-23T11:01:44.776Z,11.80
2018-08-23T11:04:25.732Z,7.87
2018-08-23T11:06:58.360Z,8.80
2018-08-23T11:09:32.528Z,8.60
2018-08-23T11:12:01.356Z,9.63
2018-08-23T11:14:35.244Z,10.13
2018-08-23T11:17:16.470Z,8.70
2018-08-23T11:20:01.464Z,10.00
2018-08-23T11:22:35.600Z,7.87
2018-08-23T11:25:06.720Z,8.00
2018-08-23T11:27:35.540Z,10.17
2018-08-23T11:30:11.872Z,7.93
2018-08-23T11:32:40.692Z,6.53
2018-08-23T11:35:10.445Z,6.47
2018-08-23T11:37:49.904Z,4.90
2018-08-23T11:40:22.196Z,5.80
2018-08-23T11:42:55.333Z,5.90
2018-08-23T11:45:44.308Z,6.40
2018-08-23T11:48:15.089Z,6.57
2018-08-23T11:50:56.297Z,7.07
2018-08-23T11:53:33.506Z,7.03
2018-08-23T11:56:02.217Z,8.70
2018-08-23T11:58:46.160Z,9.63
2018-08-23T12:01:37.476Z,20.77
2018-08-23T12:04:06.332Z,20.33
2018-08-23T12:06:35.157Z,10.23
2018-08-23T12:09:10.368Z,9.63
2018-08-23T12:11:40.084Z,11.50
2018-08-23T12:14:10.837Z,10.33
2018-08-23T12:16:40.623Z,8.70
2018-08-23T12:19:11.343Z,8.83
2018-08-23T12:21:43.488Z,8.73
2018-08-23T12:24:12.260Z,10.90
2018-08-23T12:26:41.061Z,9.20
2018-08-23T12:29:10.224Z,9.07
2018-08-23T12:31:56.110Z,8.53
2018-08-23T12:34:33.818Z,9.70
2018-08-23T12:37:07.940Z,8.90
2018-08-23T12:39:48.800Z,9.87
2018-08-23T12:42:28.620Z,7.27
2018-08-23T12:44:57.452Z,8.40
2018-08-23T12:47:26.192Z,14.70
2018-08-23T12:49:59.332Z,8.53
2018-08-23T12:52:28.124Z,12.63
2018-08-23T12:54:58.840Z,10.60
2018-08-23T12:57:35.672Z,8.83
2018-08-23T13:00:10.916Z,8.03
2018-08-23T13:02:46.258Z,8.90
2018-08-23T13:05:18.553Z,9.00
2018-08-23T13:07:52.442Z,8.47
2018-08-23T13:10:23.152Z,7.47
2018-08-23T13:12:51.892Z,8.07
2018-08-23T13:15:20.715Z,7.80
2018-08-23T13:17:55.060Z,7.50
2018-08-23T13:20:24.776Z,8.03
2018-08-23T13:22:53.668Z,7.10
2018-08-23T13:25:25.460Z,7.37
2018-08-23T13:28:01.649Z,7.03
2018-08-23T13:30:30.429Z,7.40
2018-08-23T13:32:59.232Z,7.63
2018-08-23T13:35:27.989Z,6.43
2018-08-23T13:38:04.089Z,5.70
2018-08-23T13:40:32.857Z,6.43
2018-08-23T13:43:01.629Z,6.07
2018-08-23T13:45:34.789Z,5.97
2018-08-23T13:48:06.832Z,7.27
2018-08-23T13:50:35.676Z,7.77
2018-08-23T13:53:05.529Z,6.80
2018-08-23T13:55:35.233Z,6.37
2018-08-23T13:58:03.980Z,5.83
2018-08-23T14:00:37.637Z,6.63
2018-08-23T14:03:07.337Z,5.60
2018-08-23T14:05:40.456Z,5.30
2018-08-23T14:08:12.629Z,4.60
2018-08-23T14:10:41.424Z,6.20
2018-08-23T14:13:10.141Z,5.60
2018-08-23T14:15:45.373Z,5.40
2018-08-23T14:18:24.224Z,5.60
2018-08-23T14:20:54.045Z,9.57
2018-08-23T14:23:23.801Z,5.17
2018-08-23T14:28:51.933Z,5.60
2018-08-23T14:31:21.752Z,5.80
2018-08-23T14:33:52.469Z,7.40
2018-08-23T14:36:22.268Z,5.20
2018-08-23T14:38:50.993Z,5.23
2018-08-23T14:41:19.704Z,4.83
2018-08-23T14:44:04.956Z,4.70
2018-08-23T14:46:39.237Z,4.60
2018-08-23T14:49:09.899Z,5.17
2018-08-23T14:51:44.912Z,5.47
2018-08-23T14:54:22.813Z,5.87
2018-08-23T14:57:04.320Z,4.80
2018-08-23T14:59:33.148Z,5.30
2018-08-23T15:02:05.960Z,6.13
2018-08-23T15:04:36.179Z,4.80
2018-08-23T15:07:05.000Z,4.73
2018-08-23T15:09:46.532Z,4.33
2018-08-23T15:12:27.584Z,5.17
2018-08-23T15:15:09.176Z,4.57
2018-08-23T15:17:45.058Z,5.40
2018-08-23T15:20:17.428Z,4.60
2018-08-23T15:22:51.180Z,4.63
2018-08-23T15:25:22.992Z,4.87
2018-08-23T15:28:00.163Z,4.43
2018-08-23T15:30:28.955Z,4.80
2018-08-23T15:33:10.308Z,5.73
2018-08-23T15:35:39.135Z,4.77
2018-08-23T15:38:09.855Z,4.33
2018-08-23T15:40:50.819Z,4.80
2018-08-23T15:43:20.605Z,4.27
2018-08-23T15:45:51.378Z,4.83
2018-08-23T15:48:25.898Z,4.20
2018-08-23T15:50:59.398Z,3.93
2018-08-23T15:53:31.378Z,3.80
2018-08-23T15:56:05.862Z,4.40
2018-08-23T15:58:40.658Z,4.90
2018-08-23T16:01:09.390Z,4.40
2018-08-23T16:03:44.006Z,4.17
2018-08-23T16:06:26.110Z,6.80
2018-08-23T16:09:01.182Z,4.23
2018-08-23T16:11:37.133Z,4.70
2018-08-23T16:14:09.731Z,3.50
2018-08-23T16:16:58.610Z,3.93
2018-08-23T16:19:33.018Z,4.10
2018-08-23T16:22:09.706Z,4.47
2018-08-23T16:24:42.214Z,3.37
2018-08-23T16:27:11.014Z,7.80
2018-08-23T16:32:44.066Z,4.67
2018-08-23T16:35:12.903Z,4.87
2018-08-23T16:37:43.664Z,4.67
2018-08-23T16:40:24.373Z,5.10
2018-08-23T16:42:53.115Z,4.73
2018-08-23T16:45:29.953Z,5.17
2018-08-23T16:48:06.699Z,5.13
2018-08-23T16:50:35.536Z,4.47
2018-08-23T16:53:05.391Z,6.30
2018-08-23T16:55:39.908Z,6.83
2018-08-23T16:58:09.692Z,5.00
2018-08-23T17:00:52.248Z,5.63
2018-08-23T17:03:21.080Z,4.90
2018-08-23T17:05:54.868Z,5.03
2018-08-23T17:08:26.520Z,11.80
2018-08-23T17:10:59.832Z,5.60
2018-08-23T17:16:39.900Z,9.20
2018-08-23T17:19:10.640Z,5.03
2018-08-23T17:21:44.232Z,5.23
2018-08-23T17:24:16.222Z,6.13
2018-08-23T17:26:44.992Z,8.63
2018-08-23T17:29:14.796Z,4.87
2018-08-23T17:31:45.663Z,4.70
2018-08-23T17:34:20.352Z,5.70
2018-08-23T17:37:02.939Z,5.90
2018-08-23T17:39:34.620Z,5.63
2018-08-23T17:42:09.079Z,5.57
2018-08-23T17:44:50.704Z,5.40
2018-08-23T17:47:25.056Z,9.03
2018-08-23T17:49:58.656Z,6.80
2018-08-23T17:52:35.468Z,7.77
2018-08-23T17:55:08.936Z,6.67
2018-08-23T17:57:51.192Z,6.57
2018-08-23T18:06:08.912Z,6.27
2018-08-23T18:08:56.568Z,5.80
2018-08-23T18:11:37.992Z,6.60
2018-08-23T18:14:08.892Z,5.80
2018-08-23T18:16:44.219Z,6.00
2018-08-23T18:19:15.031Z,6.33
2018-08-23T18:21:55.863Z,6.20
2018-08-23T18:24:49.012Z,6.47
2018-08-23T18:27:17.851Z,6.33
2018-08-23T18:29:47.763Z,10.00
2018-08-23T18:32:20.253Z,7.00
2018-08-23T18:34:57.308Z,9.00
2018-08-23T18:37:30.762Z,7.10
2018-08-23T18:39:59.507Z,7.23
2018-08-23T18:42:28.250Z,7.53
2018-08-23T18:45:00.700Z,7.40
2018-08-23T18:47:32.741Z,8.00
2018-08-23T18:50:09.227Z,11.00
2018-08-23T18:52:38.996Z,8.60
2018-08-23T18:55:08.840Z,8.70
2018-08-23T18:57:37.635Z,10.10
2018-08-23T19:00:07.628Z,11.63
2018-08-23T19:02:37.247Z,9.93
2018-08-23T19:05:06.084Z,10.50
2018-08-23T19:07:41.579Z,11.97
2018-08-23T19:10:23.748Z,10.13
2018-08-23T19:13:08.553Z,11.97
2018-08-23T19:15:46.899Z,10.50
2018-08-23T19:18:15.916Z,10.77
2018-08-23T19:20:46.688Z,10.17
2018-08-23T19:23:20.815Z,9.87
2018-08-23T19:25:55.351Z,10.20
2018-08-23T19:28:28.319Z,9.63
2018-08-23T19:31:07.707Z,9.97
2018-08-23T19:33:43.851Z,11.40
2018-08-23T19:36:12.686Z,11.17
2018-08-23T19:38:47.327Z,14.40
2018-08-23T19:41:21.876Z,9.90
2018-08-23T19:43:54.501Z,8.63
2018-08-23T19:46:36.203Z,9.13
2018-08-23T19:49:10.683Z,9.87
2018-08-23T19:51:45.243Z,9.03
2018-08-23T19:54:18.551Z,10.50
2018-08-23T19:57:00.487Z,9.10
2018-08-23T19:59:32.619Z,11.13
2018-08-23T20:02:08.231Z,8.50
2018-08-23T20:04:46.787Z,9.90
2018-08-23T20:07:15.820Z,8.70
2018-08-23T20:09:44.743Z,11.00
2018-08-23T20:12:14.573Z,8.83
2018-08-23T20:15:06.431Z,9.03
2018-08-23T20:17:50.041Z,9.13
2018-08-23T20:20:32.895Z,10.10
2018-08-23T20:23:05.823Z,10.17
2018-08-23T20:25:48.801Z,9.23
2018-08-23T20:28:19.659Z,12.00
2018-08-23T20:30:48.666Z,10.43
2018-08-23T20:33:17.507Z,12.50
2018-08-23T20:35:47.563Z,11.43
2018-08-23T20:38:26.858Z,10.90
2018-08-23T20:41:04.143Z,11.43
2018-08-23T20:43:32.891Z,11.90
2018-08-23T20:46:01.684Z,11.23
2018-08-23T20:48:37.927Z,10.40
2018-08-23T20:51:09.711Z,12.33
2018-08-23T20:53:42.912Z,12.27
2018-08-23T20:56:12.708Z,11.57
2018-08-23T20:58:51.559Z,11.93
2018-08-23T21:01:27.692Z,14.10
2018-08-23T21:03:56.498Z,11.97
2018-08-23T21:06:27.364Z,11.87
2018-08-23T21:09:04.483Z,11.70
2018-08-23T21:11:37.272Z,11.67
2018-08-23T21:14:07.271Z,12.57
2018-08-23T21:16:41.014Z,18.30
2018-08-23T21:19:10.805Z,15.87
2018-08-23T21:21:51.835Z,13.30
2018-08-23T21:24:20.672Z,12.27
2018-08-23T21:26:56.567Z,11.70
2018-08-23T21:29:28.899Z,12.20
2018-08-23T21:32:00.063Z,11.70
2018-08-23T21:34:37.155Z,13.60
2018-08-23T21:37:05.923Z,12.17
2018-08-23T21:39:42.119Z,12.63
2018-08-23T21:42:23.647Z,14.13
2018-08-23T21:44:55.723Z,13.60
2018-08-23T21:47:30.107Z,13.37
2018-08-23T21:49:58.927Z,12.80
2018-08-23T21:52:29.811Z,13.97
2018-08-23T21:55:11.242Z,13.10
2018-08-23T21:57:46.751Z,13.13
2018-08-23T22:00:15.607Z,12.90
2018-08-23T22:02:46.472Z,12.90
2018-08-23T22:05:15.224Z,12.10
2018-08-23T22:07:48.011Z,12.20
2018-08-23T22:10:17.874Z,12.50
2018-08-23T22:12:46.611Z,11.67
2018-08-23T22:15:16.455Z,12.57
2018-08-23T22:17:48.883Z,11.40
2018-08-23T22:20:17.663Z,12.60
2018-08-23T22:22:52.311Z,10.30
2018-08-23T22:25:23.175Z,11.30
2018-08-23T22:27:52.923Z,10.67
2018-08-23T22:30:40.299Z,10.67
2018-08-23T22:33:11.474Z,11.07
2018-08-23T22:35:43.507Z,10.53
2018-08-23T22:38:13.295Z,9.60
2018-08-23T22:40:43.114Z,11.57
2018-08-23T22:43:22.750Z,9.47
2018-08-23T22:45:52.543Z,9.90
2018-08-23T22:48:28.662Z,9.57
2018-08-23T22:51:03.014Z,10.40
2018-08-23T22:53:35.174Z,10.57
2018-08-23T22:56:13.526Z,9.80
2018-08-23T22:58:43.246Z,9.80
2018-08-23T23:01:12.716Z,7.90
2018-08-23T23:03:47.900Z,8.33
2018-08-23T23:06:16.745Z,7.73
2018-08-23T23:08:47.594Z,8.00
2018-08-23T23:11:17.410Z,7.60
2018-08-23T23:13:50.887Z,7.33
2018-08-23T23:16:24.838Z,7.70
2018-08-23T23:18:53.630Z,7.40
2018-08-23T23:21:25.954Z,8.83
2018-08-23T23:23:58.034Z,7.23
2018-08-23T23:26:26.858Z,7.00
2018-08-23T23:31:22.110Z,7.20
2018-08-23T23:33:54.394Z,7.53
2018-08-23T23:36:28.678Z,7.80
2018-08-23T23:38:57.535Z,11.10
2018-08-23T23:41:36.150Z,8.20
2018-08-23T23:44:05.954Z,8.17
2018-08-23T23:46:34.749Z,8.23
2018-08-23T23:49:03.530Z,8.37
2018-08-23T23:51:35.878Z,8.13
2018-08-23T23:54:04.670Z,7.70
2018-08-23T23:56:40.170Z,7.60
2018-08-23T23:59:10.362Z,8.03
